Time;durP1;ratioP1;P1;durP2;ratioP2;P2;SDS_P1;SDS_P2;PMS_P1;PMS_P2;Temp;Humidity;BMP_temperature;BMP_pressure;BME280_temperature;BME280_humidity;BME280_pressure;Samples;Min_cycle;Max_cycle;Signal;HPM_P1;HPM_P2
2021/01/19 00:02:43;;;;;;;24.60;16.85;;;;;;;;;;10361880;28;20071;-60
2021/01/19 00:07:42;;;;;;;33.00;20.75;;;;;;;;;;10362382;28;20072;-60
2021/01/19 00:12:39;;;;;;;30.27;18.63;;;;;;;;;;10361754;28;20083;-60
2021/01/19 00:17:36;;;;;;;28.13;18.70;;;;;;;;;;10361324;28;20092;-60
2021/01/19 00:22:33;;;;;;;26.58;16.48;;;;;;;;;;10361157;28;20059;-60
2021/01/19 00:27:32;;;;;;;25.15;17.52;;;;;;;;;;10361737;28;20067;-59
2021/01/19 00:32:29;;;;;;;34.35;20.98;;;;;;;;;;10361857;28;20047;-59
2021/01/19 00:37:26;;;;;;;26.23;17.02;;;;;;;;;;10361764;28;20417;-59
2021/01/19 00:42:23;;;;;;;30.38;17.90;;;;;;;;;;10361445;28;20090;-59
2021/01/19 00:47:22;;;;;;;42.33;23.35;;;;;;;;;;10359050;28;20048;-60
2021/01/19 00:52:20;;;;;;;26.50;18.42;;;;;;;;;;10360061;28;20543;-59
2021/01/19 00:57:17;;;;;;;32.70;20.52;;;;;;;;;;10361037;28;20460;-59
2021/01/19 01:02:16;;;;;;;27.70;18.38;;;;;;;;;;10357887;28;20086;-59
2021/01/19 01:07:15;;;;;;;23.88;14.80;;;;;;;;;;10359636;28;20064;-59
2021/01/19 01:12:12;;;;;;;26.58;16.88;;;;;;;;;;10360339;28;20058;-60
2021/01/19 01:17:09;;;;;;;36.40;20.83;;;;;;;;;;10359755;28;20048;-60
2021/01/19 01:22:07;;;;;;;41.30;22.63;;;;;;;;;;10360231;28;20090;-59
2021/01/19 01:27:06;;;;;;;27.33;17.55;;;;;;;;;;10359767;28;20051;-59
2021/01/19 01:32:03;;;;;;;28.40;17.65;;;;;;;;;;10358500;28;20036;-59
2021/01/19 01:37:00;;;;;;;29.45;18.58;;;;;;;;;;10359726;28;20501;-59
2021/01/19 01:41:58;;;;;;;28.35;17.90;;;;;;;;;;10359104;28;20308;-59
2021/01/19 01:46:56;;;;;;;26.75;16.27;;;;;;;;;;10359064;28;20052;-59
2021/01/19 01:51:53;;;;;;;29.20;19.13;;;;;;;;;;10359014;28;20430;-60
2021/01/19 01:56:51;;;;;;;32.50;18.48;;;;;;;;;;10358877;28;20106;-59
2021/01/19 02:01:48;;;;;;;32.72;20.70;;;;;;;;;;10358316;28;20072;-61
2021/01/19 02:06:48;;;;;;;46.03;24.83;;;;;;;;;;10358535;28;20478;-60
2021/01/19 02:11:48;;;;;;;70.93;50.35;;;;;;;;;;10358400;28;20105;-61
2021/01/19 02:16:50;;;;;;;41.53;22.13;;;;;;;;;;10357857;28;20055;-61
2021/01/19 02:21:55;;;;;;;33.30;20.35;;;;;;;;;;10358223;28;20106;-60
2021/01/19 02:27:19;;;;;;;38.35;21.75;;;;;;;;;;10358242;28;20468;-57
2021/01/19 02:32:23;;;;;;;31.63;19.95;;;;;;;;;;10358061;28;20048;-60
2021/01/19 02:37:22;;;;;;;35.40;22.30;;;;;;;;;;10357906;28;20083;-60
2021/01/19 02:42:21;;;;;;;31.38;21.13;;;;;;;;;;10357864;28;20154;-60
2021/01/19 02:47:19;;;;;;;35.72;20.50;;;;;;;;;;10357766;28;20071;-58
2021/01/19 02:52:17;;;;;;;26.67;17.33;;;;;;;;;;10357757;28;20044;-59
2021/01/19 02:57:26;;;;;;;28.58;18.08;;;;;;;;;;10357426;28;20048;-59
2021/01/19 03:02:27;;;;;;;26.25;18.77;;;;;;;;;;10355340;28;20178;-59
2021/01/19 03:07:26;;;;;;;35.72;21.55;;;;;;;;;;10352067;28;20591;-60
2021/01/19 03:12:25;;;;;;;40.25;23.42;;;;;;;;;;10353123;28;20068;-58
2021/01/19 03:17:22;;;;;;;49.53;28.35;;;;;;;;;;10353585;28;20084;-59
2021/01/19 03:22:20;;;;;;;39.20;23.75;;;;;;;;;;10357081;28;20079;-59
2021/01/19 03:27:18;;;;;;;30.73;19.35;;;;;;;;;;10361160;28;20223;-59
2021/01/19 03:32:15;;;;;;;32.33;19.60;;;;;;;;;;10364399;28;20079;-60
2021/01/19 03:37:12;;;;;;;29.27;20.08;;;;;;;;;;10364285;28;20040;-60
2021/01/19 03:42:10;;;;;;;30.05;20.63;;;;;;;;;;10363948;28;20080;-59
2021/01/19 03:47:10;;;;;;;31.35;19.83;;;;;;;;;;10363808;28;20059;-59
2021/01/19 03:52:08;;;;;;;26.55;18.13;;;;;;;;;;10363468;28;20446;-59
2021/01/19 03:57:06;;;;;;;34.42;22.08;;;;;;;;;;10363133;28;20055;-59
2021/01/19 04:02:04;;;;;;;48.00;29.90;;;;;;;;;;10363009;28;20059;-59
2021/01/19 04:07:01;;;;;;;41.13;24.80;;;;;;;;;;10363002;28;20409;-60
2021/01/19 04:11:59;;;;;;;50.80;30.55;;;;;;;;;;10363044;28;20052;-60
2021/01/19 04:16:56;;;;;;;47.97;29.70;;;;;;;;;;10362111;28;20044;-61
2021/01/19 04:21:54;;;;;;;49.00;27.00;;;;;;;;;;10361903;28;20441;-60
2021/01/19 04:26:51;;;;;;;39.58;23.23;;;;;;;;;;10362252;28;20052;-59
2021/01/19 04:31:49;;;;;;;45.30;26.75;;;;;;;;;;10362043;28;20075;-61
2021/01/19 04:36:46;;;;;;;48.60;28.95;;;;;;;;;;10361727;28;20045;-60
2021/01/19 04:41:47;;;;;;;42.88;24.48;;;;;;;;;;10361929;28;20469;-59
2021/01/19 04:46:45;;;;;;;52.35;27.20;;;;;;;;;;10356340;28;20071;-60
2021/01/19 04:51:45;;;;;;;28.30;17.85;;;;;;;;;;10357195;28;20071;-61
2021/01/19 04:56:49;;;;;;;36.40;23.35;;;;;;;;;;10356772;28;20071;-60
2021/01/19 05:02:00;;;;;;;49.53;31.15;;;;;;;;;;10357022;28;20075;-61
2021/01/19 05:07:10;;;;;;;42.63;28.92;;;;;;;;;;10360639;28;20499;-61
2021/01/19 05:12:13;;;;;;;44.15;24.83;;;;;;;;;;10360419;28;20047;-59
2021/01/19 05:17:10;;;;;;;45.22;29.00;;;;;;;;;;10360298;28;20501;-60
2021/01/19 05:22:15;;;;;;;48.13;28.58;;;;;;;;;;10360109;28;20434;-61
2021/01/19 05:27:13;;;;;;;66.07;38.23;;;;;;;;;;10359970;28;20075;-61
2021/01/19 05:32:11;;;;;;;47.45;29.15;;;;;;;;;;10359427;28;20072;-60
2021/01/19 05:37:08;;;;;;;45.88;27.73;;;;;;;;;;10359487;28;20491;-59
2021/01/19 05:42:05;;;;;;;59.63;33.72;;;;;;;;;;10359155;28;20083;-60
2021/01/19 05:47:04;;;;;;;71.32;44.33;;;;;;;;;;10359099;28;20067;-61
2021/01/19 05:52:03;;;;;;;69.28;42.33;;;;;;;;;;10353587;28;20532;-59
2021/01/19 05:57:02;;;;;;;69.00;40.63;;;;;;;;;;10354431;28;20082;-60
2021/01/19 06:02:00;;;;;;;58.10;32.85;;;;;;;;;;10354583;28;20079;-60
2021/01/19 06:06:58;;;;;;;195.52;94.22;;;;;;;;;;10356673;28;20071;-60
2021/01/19 06:11:58;;;;;;;215.82;105.97;;;;;;;;;;10358301;28;20085;-60
2021/01/19 06:17:09;;;;;;;241.20;130.77;;;;;;;;;;10358181;28;20433;-60
2021/01/19 06:22:08;;;;;;;142.63;70.15;;;;;;;;;;10358082;28;20080;-60
2021/01/19 06:27:07;;;;;;;203.07;115.40;;;;;;;;;;10358543;28;20052;-60
2021/01/19 06:32:05;;;;;;;126.85;66.05;;;;;;;;;;10358185;28;20047;-60
2021/01/19 06:37:03;;;;;;;118.15;57.25;;;;;;;;;;10357932;28;20072;-59
2021/01/19 06:42:06;;;;;;;69.82;39.80;;;;;;;;;;10357751;28;20453;-59
2021/01/19 06:47:04;;;;;;;64.78;33.63;;;;;;;;;;10357503;28;20084;-60
2021/01/19 06:52:06;;;;;;;62.50;36.15;;;;;;;;;;10357692;28;20048;-60
2021/01/19 06:57:10;;;;;;;57.55;33.75;;;;;;;;;;10357577;28;20079;-60
2021/01/19 07:02:16;;;;;;;67.90;39.83;;;;;;;;;;10361683;28;20079;-60
2021/01/19 07:07:18;;;;;;;66.00;36.38;;;;;;;;;;10365494;28;20078;-59
2021/01/19 07:12:20;;;;;;;73.47;41.90;;;;;;;;;;10365263;28;20075;-59
2021/01/19 07:17:18;;;;;;;50.47;29.98;;;;;;;;;;10364726;28;20087;-60
2021/01/19 07:22:42;;;;;;;48.75;28.83;;;;;;;;;;10364733;28;20075;-60
2021/01/19 07:27:40;;;;;;;63.65;33.58;;;;;;;;;;10316184;28;20188;-59
2021/01/19 07:32:37;;;;;;;69.78;38.90;;;;;;;;;;10363267;28;20048;-59
2021/01/19 07:37:35;;;;;;;85.60;45.25;;;;;;;;;;10363070;28;20039;-60
2021/01/19 07:42:33;;;;;;;89.07;46.97;;;;;;;;;;10362825;28;20072;-60
2021/01/19 07:47:35;;;;;;;96.28;46.42;;;;;;;;;;10363292;28;20094;-60
2021/01/19 07:52:36;;;;;;;106.90;50.38;;;;;;;;;;10362476;28;20082;-61
2021/01/19 07:57:33;;;;;;;120.78;61.28;;;;;;;;;;10363244;28;20044;-60
2021/01/19 08:02:30;;;;;;;133.45;69.10;;;;;;;;;;10362058;28;20083;-60
2021/01/19 08:07:38;;;;;;;103.28;53.25;;;;;;;;;;10361536;28;20044;-60
2021/01/19 08:12:36;;;;;;;84.22;43.88;;;;;;;;;;10361268;28;20055;-61
2021/01/19 08:17:36;;;;;;;95.72;46.47;;;;;;;;;;10361475;28;20056;-59
2021/01/19 08:22:34;;;;;;;87.78;45.65;;;;;;;;;;10361814;28;20091;-60
2021/01/19 08:27:36;;;;;;;78.95;44.60;;;;;;;;;;10361232;28;20047;-60
2021/01/19 08:32:38;;;;;;;91.32;46.97;;;;;;;;;;10360958;28;20052;-60
2021/01/19 08:37:36;;;;;;;165.05;75.57;;;;;;;;;;10361092;28;20082;-61
2021/01/19 08:42:34;;;;;;;67.00;39.58;;;;;;;;;;10360380;28;20071;-61
2021/01/19 08:47:33;;;;;;;69.22;41.22;;;;;;;;;;10360746;28;20055;-60
2021/01/19 08:52:42;;;;;;;70.30;37.70;;;;;;;;;;10360075;28;20055;-59
2021/01/19 08:57:41;;;;;;;73.05;39.08;;;;;;;;;;10359913;28;20047;-59
2021/01/19 09:02:55;;;;;;;59.77;36.87;;;;;;;;;;10359864;28;20079;-60
2021/01/19 09:07:54;;;;;;;58.58;35.35;;;;;;;;;;10359749;28;20341;-60
2021/01/19 09:12:53;;;;;;;85.78;45.47;;;;;;;;;;10359825;28;20493;-60
2021/01/19 09:17:51;;;;;;;95.88;57.17;;;;;;;;;;10359722;28;20083;-60
2021/01/19 09:22:48;;;;;;;65.95;40.05;;;;;;;;;;10358993;28;20086;-60
2021/01/19 09:27:45;;;;;;;73.70;42.55;;;;;;;;;;10358959;28;20544;-60
2021/01/19 09:32:44;;;;;;;85.88;48.28;;;;;;;;;;10358740;28;20040;-59
2021/01/19 09:37:42;;;;;;;87.50;54.97;;;;;;;;;;10358568;28;20071;-60
2021/01/19 09:42:40;;;;;;;84.53;49.15;;;;;;;;;;10358101;28;20083;-60
2021/01/19 09:47:38;;;;;;;79.57;38.28;;;;;;;;;;10358009;28;20051;-60
2021/01/19 09:52:40;;;;;;;103.28;54.95;;;;;;;;;;10357878;28;20078;-60
2021/01/19 09:57:37;;;;;;;78.68;42.42;;;;;;;;;;10357697;28;20055;-60
2021/01/19 10:02:35;;;;;;;107.43;49.60;;;;;;;;;;10357580;28;20077;-62
2021/01/19 10:07:33;;;;;;;125.40;60.08;;;;;;;;;;10357516;28;20040;-60
2021/01/19 10:12:32;;;;;;;129.32;64.22;;;;;;;;;;10357628;28;20086;-60
2021/01/19 10:17:30;;;;;;;78.85;45.75;;;;;;;;;;10357253;28;20056;-60
2021/01/19 10:22:27;;;;;;;133.45;62.78;;;;;;;;;;10357167;28;20071;-60
2021/01/19 10:27:25;;;;;;;71.38;40.28;;;;;;;;;;10358224;28;20415;-59
2021/01/19 10:32:24;;;;;;;111.18;60.08;;;;;;;;;;10358093;28;20044;-60
2021/01/19 10:37:22;;;;;;;183.40;85.65;;;;;;;;;;10364654;28;20040;-60
2021/01/19 10:42:24;;;;;;;74.50;45.80;;;;;;;;;;10366305;28;20072;-60
2021/01/19 10:47:21;;;;;;;87.07;47.47;;;;;;;;;;10366137;28;20048;-60
2021/01/19 10:52:20;;;;;;;60.28;37.28;;;;;;;;;;10365893;28;20044;-60
2021/01/19 10:57:17;;;;;;;72.90;45.83;;;;;;;;;;10365903;28;20477;-59
2021/01/19 11:02:14;;;;;;;78.80;39.78;;;;;;;;;;10365600;28;20072;-59
2021/01/19 11:07:12;;;;;;;78.40;46.67;;;;;;;;;;10365410;28;20043;-59
2021/01/19 11:12:10;;;;;;;88.55;48.53;;;;;;;;;;10365128;28;20044;-61
2021/01/19 11:17:08;;;;;;;98.57;56.58;;;;;;;;;;10364682;28;20091;-60
2021/01/19 11:22:08;;;;;;;130.10;73.35;;;;;;;;;;10364676;28;20107;-60
2021/01/19 11:27:05;;;;;;;70.07;41.75;;;;;;;;;;10364608;28;20086;-59
2021/01/19 11:32:03;;;;;;;79.78;48.53;;;;;;;;;;10362637;28;20044;-59
2021/01/19 11:37:01;;;;;;;91.30;50.53;;;;;;;;;;10364571;28;20052;-60
2021/01/19 11:41:58;;;;;;;404.02;211.90;;;;;;;;;;10363853;28;20084;-59
2021/01/19 11:46:56;;;;;;;226.95;123.25;;;;;;;;;;10363015;28;20087;-59
2021/01/19 11:51:54;;;;;;;96.45;61.85;;;;;;;;;;10363427;28;20040;-59
2021/01/19 11:56:52;;;;;;;167.88;86.45;;;;;;;;;;10363491;28;20051;-59
2021/01/19 12:01:53;;;;;;;128.40;68.45;;;;;;;;;;10363089;28;20464;-60
2021/01/19 12:06:50;;;;;;;102.95;63.33;;;;;;;;;;10363171;28;20447;-59
2021/01/19 12:11:51;;;;;;;82.07;46.78;;;;;;;;;;10362935;28;20060;-59
2021/01/19 12:16:51;;;;;;;110.90;59.95;;;;;;;;;;10362627;28;20923;-60
2021/01/19 12:21:49;;;;;;;132.15;69.07;;;;;;;;;;10360880;28;20452;-59
2021/01/19 12:26:47;;;;;;;160.65;87.13;;;;;;;;;;10362285;28;20051;-60
2021/01/19 12:31:45;;;;;;;134.25;74.80;;;;;;;;;;10360078;28;20079;-60
2021/01/19 12:36:43;;;;;;;79.00;49.58;;;;;;;;;;10361977;28;20036;-60
2021/01/19 12:41:41;;;;;;;74.43;45.92;;;;;;;;;;10361537;28;20079;-60
2021/01/19 12:46:39;;;;;;;59.35;38.53;;;;;;;;;;10361318;28;20071;-60
2021/01/19 12:51:37;;;;;;;65.47;39.13;;;;;;;;;;10361136;28;20070;-60
2021/01/19 12:56:37;;;;;;;84.75;50.35;;;;;;;;;;10361062;28;20428;-60
2021/01/19 13:01:34;;;;;;;76.93;46.60;;;;;;;;;;10359839;28;20075;-59
2021/01/19 13:06:32;;;;;;;72.38;44.70;;;;;;;;;;10360662;28;20508;-59
2021/01/19 13:11:31;;;;;;;109.15;63.10;;;;;;;;;;10360387;28;20086;-60
2021/01/19 13:16:28;;;;;;;123.38;72.65;;;;;;;;;;10360179;28;20501;-59
2021/01/19 13:21:26;;;;;;;73.03;42.70;;;;;;;;;;10360399;28;20087;-59
2021/01/19 13:26:23;;;;;;;85.45;46.63;;;;;;;;;;10358041;28;20044;-60
2021/01/19 13:31:21;;;;;;;77.30;48.53;;;;;;;;;;10359692;28;20078;-60
2021/01/19 13:36:19;;;;;;;75.93;47.85;;;;;;;;;;10359439;28;20055;-60
2021/01/19 13:41:16;;;;;;;82.97;48.17;;;;;;;;;;10359329;28;20080;-60
2021/01/19 13:46:15;;;;;;;92.25;51.13;;;;;;;;;;10359073;28;20501;-60
2021/01/19 13:51:13;;;;;;;245.40;123.85;;;;;;;;;;10358989;28;20512;-60
2021/01/19 13:56:10;;;;;;;115.72;69.32;;;;;;;;;;10358825;28;20041;-59
2021/01/19 14:01:08;;;;;;;127.05;72.03;;;;;;;;;;10358663;28;20047;-59
2021/01/19 14:06:09;;;;;;;72.80;42.50;;;;;;;;;;10358497;28;20076;-60
2021/01/19 14:11:07;;;;;;;76.60;43.97;;;;;;;;;;10358063;28;20044;-60
2021/01/19 14:16:05;;;;;;;139.30;72.75;;;;;;;;;;10358145;28;20040;-59
2021/01/19 14:21:02;;;;;;;143.60;71.32;;;;;;;;;;10358447;28;20063;-59
2021/01/19 14:26:01;;;;;;;82.88;46.65;;;;;;;;;;10358125;28;20040;-58
2021/01/19 14:30:59;;;;;;;91.85;54.83;;;;;;;;;;10357931;28;20401;-59
2021/01/19 14:35:57;;;;;;;91.88;52.60;;;;;;;;;;10357654;28;20040;-59
2021/01/19 14:40:56;;;;;;;95.25;58.97;;;;;;;;;;10357622;28;20043;-59
2021/01/19 14:45:54;;;;;;;90.47;52.58;;;;;;;;;;10357434;28;20075;-60
2021/01/19 14:50:52;;;;;;;92.60;50.75;;;;;;;;;;10357523;28;20071;-59
2021/01/19 14:55:49;;;;;;;72.65;47.50;;;;;;;;;;10357306;28;20040;-61
2021/01/19 15:00:47;;;;;;;116.15;67.68;;;;;;;;;;10357434;28;20044;-60
2021/01/19 15:05:44;;;;;;;101.38;58.22;;;;;;;;;;10357095;28;20067;-59
2021/01/19 15:10:42;;;;;;;143.02;78.85;;;;;;;;;;10357183;28;20145;-59
2021/01/19 15:15:39;;;;;;;112.60;63.00;;;;;;;;;;10356930;28;20044;-59
2021/01/19 15:20:37;;;;;;;93.75;52.97;;;;;;;;;;10357199;28;20064;-58
2021/01/19 15:25:34;;;;;;;112.47;64.43;;;;;;;;;;10364387;28;20454;-59
2021/01/19 15:30:32;;;;;;;130.32;74.18;;;;;;;;;;10364435;28;20079;-59
2021/01/19 15:35:30;;;;;;;156.35;82.57;;;;;;;;;;10363646;28;20074;-59
2021/01/19 15:40:27;;;;;;;134.07;70.30;;;;;;;;;;10363612;28;20075;-59
2021/01/19 15:45:24;;;;;;;146.48;80.47;;;;;;;;;;10363725;28;20075;-60
2021/01/19 15:50:23;;;;;;;264.00;131.38;;;;;;;;;;10363598;28;20048;-60
2021/01/19 15:55:20;;;;;;;262.40;126.07;;;;;;;;;;10363332;28;20043;-59
2021/01/19 16:00:18;;;;;;;160.73;97.18;;;;;;;;;;10362992;28;20044;-59
2021/01/19 16:05:16;;;;;;;176.70;95.93;;;;;;;;;;10362559;28;20109;-59
2021/01/19 16:10:15;;;;;;;246.63;125.13;;;;;;;;;;10362724;28;20087;-59
2021/01/19 16:15:13;;;;;;;283.13;134.13;;;;;;;;;;10340912;28;20079;-58
2021/01/19 16:20:10;;;;;;;146.88;74.13;;;;;;;;;;10330984;28;20725;-59
2021/01/19 16:25:08;;;;;;;117.90;55.33;;;;;;;;;;10331557;28;20072;-59
2021/01/19 16:30:07;;;;;;;134.63;63.65;;;;;;;;;;10329718;28;20087;-58
2021/01/19 16:35:06;;;;;;;88.45;48.83;;;;;;;;;;10315801;28;20084;-59
2021/01/19 16:40:03;;;;;;;75.40;45.63;;;;;;;;;;10338144;28;20098;-59
2021/01/19 16:45:05;;;;;;;69.93;41.00;;;;;;;;;;10337253;28;20517;-59
2021/01/19 16:50:04;;;;;;;96.70;53.85;;;;;;;;;;10332791;28;20083;-56
2021/01/19 16:55:02;;;;;;;99.85;53.00;;;;;;;;;;10327892;28;20048;-59
2021/01/19 16:59:59;;;;;;;97.22;56.67;;;;;;;;;;10319421;28;20049;-59
2021/01/19 17:04:56;;;;;;;94.38;59.78;;;;;;;;;;10332655;28;20595;-59
2021/01/19 17:09:54;;;;;;;74.97;48.85;;;;;;;;;;10349645;28;20078;-60
2021/01/19 17:14:52;;;;;;;78.15;46.70;;;;;;;;;;10359806;28;20086;-59
2021/01/19 17:19:52;;;;;;;67.93;42.28;;;;;;;;;;10359725;28;20429;-59
2021/01/19 17:24:49;;;;;;;70.20;41.78;;;;;;;;;;10359542;28;20076;-59
2021/01/19 17:29:47;;;;;;;65.55;38.95;;;;;;;;;;10358707;28;20048;-57
2021/01/19 17:34:44;;;;;;;57.10;35.92;;;;;;;;;;10359510;28;20052;-58
2021/01/19 17:39:42;;;;;;;63.25;37.00;;;;;;;;;;10358725;28;20079;-58
2021/01/19 17:44:40;;;;;;;52.60;32.58;;;;;;;;;;10357488;28;20072;-59
2021/01/19 17:49:39;;;;;;;55.60;34.45;;;;;;;;;;10356871;28;20048;-59
2021/01/19 17:54:36;;;;;;;134.07;70.35;;;;;;;;;;10358136;28;20043;-57
2021/01/19 17:59:34;;;;;;;78.80;43.67;;;;;;;;;;10357649;28;20044;-57
2021/01/19 18:04:32;;;;;;;114.50;55.58;;;;;;;;;;10358116;28;20083;-59
2021/01/19 18:09:30;;;;;;;108.47;53.90;;;;;;;;;;10357929;28;20052;-59
2021/01/19 18:14:27;;;;;;;158.25;70.50;;;;;;;;;;10357191;28;20428;-60
2021/01/19 18:19:25;;;;;;;96.10;50.88;;;;;;;;;;10357472;28;20048;-60
2021/01/19 18:24:22;;;;;;;82.00;48.80;;;;;;;;;;10357078;28;20078;-57
2021/01/19 18:29:22;;;;;;;81.57;46.50;;;;;;;;;;10357056;28;20055;-60
2021/01/19 18:34:28;;;;;;;59.42;34.05;;;;;;;;;;10357347;28;20499;-60
2021/01/19 18:39:26;;;;;;;63.58;33.58;;;;;;;;;;10357276;28;20305;-59
2021/01/19 18:44:25;;;;;;;59.83;34.50;;;;;;;;;;10353312;28;20083;-59
2021/01/19 18:49:22;;;;;;;55.33;32.58;;;;;;;;;;10329634;28;20072;-59
2021/01/19 18:54:21;;;;;;;49.47;26.75;;;;;;;;;;10317927;28;20465;-60
2021/01/19 18:59:18;;;;;;;51.15;28.33;;;;;;;;;;10334806;28;20064;-59
2021/01/19 19:04:16;;;;;;;47.42;26.73;;;;;;;;;;10337243;28;20567;-60
2021/01/19 19:09:14;;;;;;;42.38;24.13;;;;;;;;;;10351968;28;20076;-58
2021/01/19 19:14:12;;;;;;;55.55;28.17;;;;;;;;;;10339159;28;20485;-59
2021/01/19 19:19:11;;;;;;;47.47;24.98;;;;;;;;;;10327078;28;20112;-60
2021/01/19 19:24:11;;;;;;;39.05;24.77;;;;;;;;;;10351487;28;20063;-61
2021/01/19 19:29:09;;;;;;;50.78;26.92;;;;;;;;;;10323826;28;20079;-59
2021/01/19 19:34:06;;;;;;;64.70;30.77;;;;;;;;;;10344174;28;20064;-60
2021/01/19 19:39:03;;;;;;;46.88;27.73;;;;;;;;;;10340003;28;20060;-60
2021/01/19 19:44:02;;;;;;;49.50;27.10;;;;;;;;;;10338188;28;20076;-58
2021/01/19 19:48:59;;;;;;;52.38;29.58;;;;;;;;;;10337044;28;20079;-58
2021/01/19 19:53:57;;;;;;;48.53;28.55;;;;;;;;;;10334224;28;20071;-57
2021/01/19 19:58:55;;;;;;;47.83;26.60;;;;;;;;;;10334568;28;20073;-59
2021/01/19 20:03:56;;;;;;;50.20;28.75;;;;;;;;;;10345937;28;20084;-59
2021/01/19 20:08:54;;;;;;;69.30;37.25;;;;;;;;;;10331793;28;20068;-58
2021/01/19 20:13:51;;;;;;;59.95;35.00;;;;;;;;;;10327193;28;20485;-57
2021/01/19 20:18:48;;;;;;;88.55;44.13;;;;;;;;;;10338077;28;20453;-58
2021/01/19 20:23:46;;;;;;;87.85;45.00;;;;;;;;;;10336399;28;20079;-58
2021/01/19 20:28:44;;;;;;;80.53;39.20;;;;;;;;;;10343411;28;20087;-58
2021/01/19 20:33:41;;;;;;;38.05;25.00;;;;;;;;;;10331216;28;20099;-60
2021/01/19 20:38:39;;;;;;;36.20;21.88;;;;;;;;;;10319658;28;20041;-59
2021/01/19 20:43:37;;;;;;;31.63;19.90;;;;;;;;;;10319868;28;20083;-59
2021/01/19 20:48:35;;;;;;;28.38;19.35;;;;;;;;;;10319288;28;20053;-56
2021/01/19 20:53:34;;;;;;;28.30;18.27;;;;;;;;;;10319687;28;20075;-59
2021/01/19 20:58:31;;;;;;;27.27;17.20;;;;;;;;;;10331330;28;20072;-59
2021/01/19 21:03:29;;;;;;;26.40;17.90;;;;;;;;;;10318176;28;20079;-59
2021/01/19 21:08:26;;;;;;;29.65;17.83;;;;;;;;;;10329308;28;20091;-59
2021/01/19 21:13:24;;;;;;;32.08;21.35;;;;;;;;;;10328838;28;20048;-59
2021/01/19 21:18:21;;;;;;;46.67;26.58;;;;;;;;;;10322062;28;20091;-59
2021/01/19 21:23:19;;;;;;;37.15;22.73;;;;;;;;;;10332396;28;20079;-58
2021/01/19 21:28:16;;;;;;;36.83;23.02;;;;;;;;;;10315948;28;20060;-60
2021/01/19 21:33:14;;;;;;;39.90;23.63;;;;;;;;;;10317568;28;20047;-59
2021/01/19 21:38:12;;;;;;;34.33;19.33;;;;;;;;;;10317436;28;20471;-60
2021/01/19 21:43:10;;;;;;;40.53;24.67;;;;;;;;;;10316996;28;20079;-59
2021/01/19 21:48:08;;;;;;;37.35;21.73;;;;;;;;;;10317130;28;20072;-60
2021/01/19 21:53:05;;;;;;;37.75;22.73;;;;;;;;;;10317140;28;20452;-59
2021/01/19 21:58:03;;;;;;;27.10;16.83;;;;;;;;;;10316881;28;20040;-59
2021/01/19 22:03:01;;;;;;;101.63;43.30;;;;;;;;;;10316495;28;20108;-60
2021/01/19 22:07:59;;;;;;;166.85;75.10;;;;;;;;;;10316377;28;20051;-59
2021/01/19 22:12:58;;;;;;;124.13;59.97;;;;;;;;;;10315865;28;20047;-59
2021/01/19 22:17:55;;;;;;;50.70;28.73;;;;;;;;;;10315962;28;20087;-59
2021/01/19 22:22:54;;;;;;;43.17;25.80;;;;;;;;;;10315335;28;20512;-60
2021/01/19 22:27:52;;;;;;;27.25;18.10;;;;;;;;;;10316344;28;20052;-59
2021/01/19 22:32:49;;;;;;;26.58;16.73;;;;;;;;;;10315741;28;20075;-58
2021/01/19 22:37:47;;;;;;;21.60;13.35;;;;;;;;;;10315740;28;20072;-58
2021/01/19 22:42:45;;;;;;;28.70;17.77;;;;;;;;;;10315586;28;20044;-58
2021/01/19 22:47:42;;;;;;;26.33;16.48;;;;;;;;;;10315119;28;20068;-60
2021/01/19 22:52:44;;;;;;;25.02;15.40;;;;;;;;;;10314748;28;20075;-58
2021/01/19 22:57:41;;;;;;;38.03;21.13;;;;;;;;;;10315512;28;20072;-59
2021/01/19 23:02:39;;;;;;;23.13;14.70;;;;;;;;;;10315033;28;20083;-58
2021/01/19 23:07:37;;;;;;;24.63;15.40;;;;;;;;;;10314993;28;20064;-59
2021/01/19 23:12:34;;;;;;;21.80;15.70;;;;;;;;;;10314628;28;20088;-59
2021/01/19 23:17:31;;;;;;;33.50;18.98;;;;;;;;;;10315033;28;20488;-58
2021/01/19 23:22:31;;;;;;;87.82;45.35;;;;;;;;;;10315361;28;20057;-60
2021/01/19 23:27:28;;;;;;;92.45;45.75;;;;;;;;;;10314559;28;20533;-58
2021/01/19 23:32:27;;;;;;;69.13;36.97;;;;;;;;;;10315958;28;20045;-59
2021/01/19 23:37:25;;;;;;;74.18;35.83;;;;;;;;;;10314384;28;20110;-60
2021/01/19 23:42:23;;;;;;;45.80;24.27;;;;;;;;;;10316938;28;20072;-60
2021/01/19 23:47:28;;;;;;;;;;;;;;;;;;10321999;28;20091;-59
2021/01/19 23:52:25;;;;;;;45.08;23.17;;;;;;;;;;10322524;28;19920;-59
2021/01/19 23:57:23;;;;;;;67.18;32.30;;;;;;;;;;10322332;28;20045;-59
